sensor_id;sensor_type;location;lat;lon;timestamp;P1;durP1;ratioP1;P2;durP2;ratioP2
9667;SDS011;4872;48.316;10.650;2024-02-16T05:05:48;6.73;;;5.33;;
9667;SDS011;4872;48.316;10.650;2024-02-16T05:08:15;6.60;;;5.93;;
9667;SDS011;4872;48.316;10.650;2024-02-16T05:10:41;6.30;;;5.20;;
9667;SDS011;4872;48.316;10.650;2024-02-16T05:13:08;6.33;;;5.73;;
9667;SDS011;4872;48.316;10.650;2024-02-16T05:15:36;5.30;;;4.80;;
9667;SDS011;4872;48.316;10.650;2024-02-16T05:18:03;7.10;;;5.97;;
9667;SDS011;4872;48.316;10.650;2024-02-16T05:20:30;7.43;;;5.53;;
9667;SDS011;4872;48.316;10.650;2024-02-16T05:22:58;7.17;;;5.80;;
9667;SDS011;4872;48.316;10.650;2024-02-16T05:25:25;6.20;;;5.50;;
9667;SDS011;4872;48.316;10.650;2024-02-16T05:27:52;6.00;;;5.40;;
9667;SDS011;4872;48.316;10.650;2024-02-16T05:30:19;7.07;;;5.37;;
9667;SDS011;4872;48.316;10.650;2024-02-16T05:32:45;8.17;;;5.53;;
9667;SDS011;4872;48.316;10.650;2024-02-16T05:35:14;5.73;;;5.20;;
9667;SDS011;4872;48.316;10.650;2024-02-16T05:37:42;6.70;;;5.17;;
9667;SDS011;4872;48.316;10.650;2024-02-16T05:40:11;6.67;;;5.50;;
9667;SDS011;4872;48.316;10.650;2024-02-16T05:42:46;7.77;;;6.40;;
9667;SDS011;4872;48.316;10.650;2024-02-16T05:45:14;11.63;;;8.03;;
9667;SDS011;4872;48.316;10.650;2024-02-16T05:47:41;8.73;;;7.33;;
9667;SDS011;4872;48.316;10.650;2024-02-16T05:50:08;9.80;;;7.27;;
9667;SDS011;4872;48.316;10.650;2024-02-16T05:52:37;9.00;;;6.93;;
9667;SDS011;4872;48.316;10.650;2024-02-16T05:55:04;7.67;;;6.40;;
9667;SDS011;4872;48.316;10.650;2024-02-16T05:57:32;8.23;;;6.73;;
9667;SDS011;4872;48.316;10.650;2024-02-16T05:59:59;8.43;;;6.93;;
9667;SDS011;4872;48.316;10.650;2024-02-16T06:02:27;8.60;;;6.33;;
9667;SDS011;4872;48.316;10.650;2024-02-16T06:04:54;7.63;;;6.77;;
9667;SDS011;4872;48.316;10.650;2024-02-16T06:07:21;8.47;;;6.60;;
9667;SDS011;4872;48.316;10.650;2024-02-16T06:09:48;11.87;;;7.10;;
9667;SDS011;4872;48.316;10.650;2024-02-16T06:12:15;7.00;;;6.30;;
9667;SDS011;4872;48.316;10.650;2024-02-16T06:14:43;9.07;;;6.67;;
9667;SDS011;4872;48.316;10.650;2024-02-16T06:17:10;8.07;;;6.53;;
9667;SDS011;4872;48.316;10.650;2024-02-16T06:19:40;8.10;;;5.77;;
9667;SDS011;4872;48.316;10.650;2024-02-16T06:22:07;7.50;;;6.57;;
9667;SDS011;4872;48.316;10.650;2024-02-16T06:24:34;12.60;;;7.00;;
9667;SDS011;4872;48.316;10.650;2024-02-16T06:27:01;8.33;;;6.67;;
9667;SDS011;4872;48.316;10.650;2024-02-16T06:29:29;6.67;;;5.97;;
9667;SDS011;4872;48.316;10.650;2024-02-16T06:31:57;9.90;;;7.20;;
9667;SDS011;4872;48.316;10.650;2024-02-16T06:34:24;7.20;;;6.27;;
9667;SDS011;4872;48.316;10.650;2024-02-16T06:36:51;8.50;;;7.17;;
9667;SDS011;4872;48.316;10.650;2024-02-16T06:39:18;10.43;;;7.23;;
9667;SDS011;4872;48.316;10.650;2024-02-16T06:41:45;9.03;;;6.67;;
9667;SDS011;4872;48.316;10.650;2024-02-16T06:44:12;7.00;;;6.30;;
9667;SDS011;4872;48.316;10.650;2024-02-16T06:46:39;10.80;;;6.60;;
9667;SDS011;4872;48.316;10.650;2024-02-16T06:49:07;7.13;;;6.43;;
9667;SDS011;4872;48.316;10.650;2024-02-16T06:51:35;7.97;;;6.80;;
9667;SDS011;4872;48.316;10.650;2024-02-16T06:54:02;7.53;;;6.67;;
9667;SDS011;4872;48.316;10.650;2024-02-16T06:56:29;8.23;;;7.17;;
9667;SDS011;4872;48.316;10.650;2024-02-16T06:58:56;8.67;;;6.93;;
9667;SDS011;4872;48.316;10.650;2024-02-16T07:01:23;10.67;;;7.07;;
9667;SDS011;4872;48.316;10.650;2024-02-16T07:03:51;15.90;;;7.63;;
9667;SDS011;4872;48.316;10.650;2024-02-16T07:06:19;11.40;;;8.47;;
9667;SDS011;4872;48.316;10.650;2024-02-16T07:08:46;11.63;;;8.90;;
9667;SDS011;4872;48.316;10.650;2024-02-16T07:11:12;12.80;;;10.07;;
9667;SDS011;4872;48.316;10.650;2024-02-16T07:13:39;13.03;;;11.63;;
9667;SDS011;4872;48.316;10.650;2024-02-16T07:16:07;19.13;;;13.17;;
9667;SDS011;4872;48.316;10.650;2024-02-16T07:18:34;13.73;;;12.13;;
9667;SDS011;4872;48.316;10.650;2024-02-16T07:21:02;15.13;;;11.57;;
9667;SDS011;4872;48.316;10.650;2024-02-16T07:23:30;14.90;;;12.13;;
9667;SDS011;4872;48.316;10.650;2024-02-16T07:25:57;14.17;;;11.87;;
9667;SDS011;4872;48.316;10.650;2024-02-16T07:28:26;12.53;;;11.10;;
9667;SDS011;4872;48.316;10.650;2024-02-16T07:30:53;11.87;;;9.77;;
9667;SDS011;4872;48.316;10.650;2024-02-16T07:33:20;11.53;;;10.03;;
9667;SDS011;4872;48.316;10.650;2024-02-16T07:35:49;11.60;;;10.23;;
9667;SDS011;4872;48.316;10.650;2024-02-16T07:38:16;11.40;;;9.70;;
9667;SDS011;4872;48.316;10.650;2024-02-16T07:40:45;13.13;;;10.30;;
9667;SDS011;4872;48.316;10.650;2024-02-16T07:43:12;15.23;;;10.23;;
9667;SDS011;4872;48.316;10.650;2024-02-16T07:45:42;14.37;;;10.50;;
9667;SDS011;4872;48.316;10.650;2024-02-16T07:48:23;19.73;;;11.37;;
9667;SDS011;4872;48.316;10.650;2024-02-16T07:50:50;11.90;;;10.40;;
9667;SDS011;4872;48.316;10.650;2024-02-16T07:53:17;14.83;;;10.50;;
9667;SDS011;4872;48.316;10.650;2024-02-16T07:55:45;14.47;;;10.97;;
9667;SDS011;4872;48.316;10.650;2024-02-16T07:58:12;14.33;;;11.50;;
9667;SDS011;4872;48.316;10.650;2024-02-16T08:00:39;12.57;;;8.43;;
9667;SDS011;4872;48.316;10.650;2024-02-16T08:03:06;9.13;;;7.50;;
9667;SDS011;4872;48.316;10.650;2024-02-16T08:05:33;10.60;;;7.03;;
9667;SDS011;4872;48.316;10.650;2024-02-16T08:08:00;7.47;;;6.77;;
9667;SDS011;4872;48.316;10.650;2024-02-16T08:10:28;9.30;;;7.03;;
9667;SDS011;4872;48.316;10.650;2024-02-16T08:12:56;8.37;;;6.80;;
9667;SDS011;4872;48.316;10.650;2024-02-16T08:15:23;8.73;;;7.30;;
9667;SDS011;4872;48.316;10.650;2024-02-16T08:17:50;9.50;;;7.67;;
9667;SDS011;4872;48.316;10.650;2024-02-16T08:23:40;8.37;;;7.43;;
9667;SDS011;4872;48.316;10.650;2024-02-16T08:29:32;7.97;;;6.47;;
9667;SDS011;4872;48.316;10.650;2024-02-16T08:32:00;12.30;;;6.80;;
9667;SDS011;4872;48.316;10.650;2024-02-16T08:34:28;10.60;;;7.20;;
9667;SDS011;4872;48.316;10.650;2024-02-16T08:36:55;7.53;;;6.73;;
9667;SDS011;4872;48.316;10.650;2024-02-16T08:39:22;7.93;;;6.27;;
9667;SDS011;4872;48.316;10.650;2024-02-16T08:41:50;8.47;;;6.53;;
9667;SDS011;4872;48.316;10.650;2024-02-16T08:44:17;10.33;;;7.20;;
9667;SDS011;4872;48.316;10.650;2024-02-16T08:46:45;8.37;;;7.27;;
9667;SDS011;4872;48.316;10.650;2024-02-16T08:49:13;8.27;;;7.47;;
9667;SDS011;4872;48.316;10.650;2024-02-16T08:51:41;11.10;;;8.80;;
9667;SDS011;4872;48.316;10.650;2024-02-16T08:54:08;9.43;;;8.53;;
9667;SDS011;4872;48.316;10.650;2024-02-16T08:56:46;9.40;;;8.40;;
9667;SDS011;4872;48.316;10.650;2024-02-16T08:59:13;10.50;;;7.83;;
9667;SDS011;4872;48.316;10.650;2024-02-16T09:01:41;10.37;;;7.60;;
9667;SDS011;4872;48.316;10.650;2024-02-16T09:04:10;7.53;;;6.80;;
9667;SDS011;4872;48.316;10.650;2024-02-16T09:09:35;7.83;;;7.07;;
9667;SDS011;4872;48.316;10.650;2024-02-16T09:12:02;8.67;;;7.73;;
9667;SDS011;4872;48.316;10.650;2024-02-16T09:14:29;7.93;;;7.10;;
9667;SDS011;4872;48.316;10.650;2024-02-16T09:16:57;7.93;;;6.90;;
9667;SDS011;4872;48.316;10.650;2024-02-16T09:19:25;9.33;;;7.60;;
9667;SDS011;4872;48.316;10.650;2024-02-16T09:21:52;8.40;;;7.60;;
9667;SDS011;4872;48.316;10.650;2024-02-16T09:24:19;8.73;;;7.43;;
9667;SDS011;4872;48.316;10.650;2024-02-16T09:26:46;8.33;;;7.10;;
9667;SDS011;4872;48.316;10.650;2024-02-16T09:29:13;8.03;;;7.23;;
9667;SDS011;4872;48.316;10.650;2024-02-16T09:31:40;9.03;;;7.03;;
9667;SDS011;4872;48.316;10.650;2024-02-16T09:34:07;7.70;;;6.23;;
9667;SDS011;4872;48.316;10.650;2024-02-16T09:36:35;6.83;;;6.13;;
9667;SDS011;4872;48.316;10.650;2024-02-16T09:39:02;6.53;;;5.77;;
9667;SDS011;4872;48.316;10.650;2024-02-16T09:41:30;6.57;;;5.97;;
9667;SDS011;4872;48.316;10.650;2024-02-16T09:44:00;6.87;;;6.13;;
9667;SDS011;4872;48.316;10.650;2024-02-16T09:46:27;6.10;;;5.50;;
9667;SDS011;4872;48.316;10.650;2024-02-16T09:48:55;7.17;;;5.70;;
9667;SDS011;4872;48.316;10.650;2024-02-16T09:51:27;7.03;;;5.13;;
9667;SDS011;4872;48.316;10.650;2024-02-16T09:53:56;5.83;;;5.10;;
9667;SDS011;4872;48.316;10.650;2024-02-16T09:56:22;5.00;;;4.50;;
9667;SDS011;4872;48.316;10.650;2024-02-16T09:58:49;5.30;;;4.80;;
9667;SDS011;4872;48.316;10.650;2024-02-16T10:01:17;7.27;;;4.90;;
9667;SDS011;4872;48.316;10.650;2024-02-16T10:03:45;5.70;;;4.20;;
9667;SDS011;4872;48.316;10.650;2024-02-16T10:06:13;5.40;;;4.20;;
9667;SDS011;4872;48.316;10.650;2024-02-16T10:08:47;6.97;;;4.80;;
9667;SDS011;4872;48.316;10.650;2024-02-16T10:11:17;4.47;;;3.83;;
9667;SDS011;4872;48.316;10.650;2024-02-16T10:13:54;4.40;;;3.97;;
9667;SDS011;4872;48.316;10.650;2024-02-16T10:16:22;4.20;;;3.80;;
9667;SDS011;4872;48.316;10.650;2024-02-16T10:18:49;4.57;;;4.10;;
9667;SDS011;4872;48.316;10.650;2024-02-16T10:21:23;7.00;;;5.00;;
9667;SDS011;4872;48.316;10.650;2024-02-16T10:23:55;7.33;;;4.57;;
9667;SDS011;4872;48.316;10.650;2024-02-16T10:26:28;4.57;;;4.00;;
9667;SDS011;4872;48.316;10.650;2024-02-16T10:28:56;8.03;;;4.43;;
9667;SDS011;4872;48.316;10.650;2024-02-16T10:31:23;6.70;;;4.27;;
9667;SDS011;4872;48.316;10.650;2024-02-16T10:33:55;5.50;;;4.20;;
9667;SDS011;4872;48.316;10.650;2024-02-16T10:36:23;4.80;;;4.30;;
9667;SDS011;4872;48.316;10.650;2024-02-16T10:38:51;4.93;;;4.13;;
9667;SDS011;4872;48.316;10.650;2024-02-16T10:41:19;6.00;;;4.10;;
9667;SDS011;4872;48.316;10.650;2024-02-16T10:43:49;5.00;;;4.10;;
9667;SDS011;4872;48.316;10.650;2024-02-16T10:46:16;4.60;;;4.20;;
9667;SDS011;4872;48.316;10.650;2024-02-16T10:48:43;4.87;;;4.03;;
9667;SDS011;4872;48.316;10.650;2024-02-16T10:51:10;5.37;;;3.37;;
9667;SDS011;4872;48.316;10.650;2024-02-16T10:53:39;5.37;;;3.80;;
9667;SDS011;4872;48.316;10.650;2024-02-16T10:56:07;5.87;;;4.23;;
9667;SDS011;4872;48.316;10.650;2024-02-16T10:58:34;4.97;;;3.70;;
9667;SDS011;4872;48.316;10.650;2024-02-16T11:01:08;4.33;;;3.90;;
9667;SDS011;4872;48.316;10.650;2024-02-16T11:03:37;5.07;;;4.57;;
9667;SDS011;4872;48.316;10.650;2024-02-16T11:06:11;5.30;;;3.77;;
9667;SDS011;4872;48.316;10.650;2024-02-16T11:08:41;4.57;;;4.10;;
9667;SDS011;4872;48.316;10.650;2024-02-16T11:11:08;4.80;;;4.30;;
9667;SDS011;4872;48.316;10.650;2024-02-16T11:13:37;7.07;;;4.20;;
9667;SDS011;4872;48.316;10.650;2024-02-16T11:16:06;4.93;;;3.90;;
9667;SDS011;4872;48.316;10.650;2024-02-16T11:18:38;4.80;;;3.97;;
9667;SDS011;4872;48.316;10.650;2024-02-16T11:21:06;5.93;;;4.47;;
9667;SDS011;4872;48.316;10.650;2024-02-16T11:23:34;4.47;;;3.67;;
9667;SDS011;4872;48.316;10.650;2024-02-16T11:26:02;4.70;;;4.30;;
9667;SDS011;4872;48.316;10.650;2024-02-16T11:28:31;8.90;;;4.90;;
9667;SDS011;4872;48.316;10.650;2024-02-16T11:30:59;6.10;;;4.77;;
9667;SDS011;4872;48.316;10.650;2024-02-16T11:33:27;6.10;;;4.30;;
9667;SDS011;4872;48.316;10.650;2024-02-16T11:35:57;7.47;;;4.43;;
9667;SDS011;4872;48.316;10.650;2024-02-16T11:38:25;7.00;;;4.70;;
9667;SDS011;4872;48.316;10.650;2024-02-16T11:40:53;6.73;;;4.33;;
9667;SDS011;4872;48.316;10.650;2024-02-16T11:43:20;7.30;;;4.70;;
9667;SDS011;4872;48.316;10.650;2024-02-16T11:45:48;5.90;;;4.40;;
9667;SDS011;4872;48.316;10.650;2024-02-16T11:48:18;6.83;;;4.90;;
9667;SDS011;4872;48.316;10.650;2024-02-16T11:50:46;8.70;;;5.17;;
9667;SDS011;4872;48.316;10.650;2024-02-16T11:53:16;6.17;;;4.70;;
9667;SDS011;4872;48.316;10.650;2024-02-16T11:55:47;6.30;;;4.40;;
9667;SDS011;4872;48.316;10.650;2024-02-16T11:58:15;7.00;;;5.30;;
9667;SDS011;4872;48.316;10.650;2024-02-16T12:00:47;11.23;;;8.10;;
9667;SDS011;4872;48.316;10.650;2024-02-16T12:03:18;20.47;;;12.80;;
9667;SDS011;4872;48.316;10.650;2024-02-16T12:05:50;8.73;;;4.73;;
9667;SDS011;4872;48.316;10.650;2024-02-16T12:08:18;5.80;;;4.47;;
9667;SDS011;4872;48.316;10.650;2024-02-16T12:10:46;5.90;;;4.13;;
9667;SDS011;4872;48.316;10.650;2024-02-16T12:13:14;18.47;;;11.77;;
9667;SDS011;4872;48.316;10.650;2024-02-16T12:15:43;12.50;;;9.50;;
9667;SDS011;4872;48.316;10.650;2024-02-16T12:18:10;6.07;;;4.90;;
9667;SDS011;4872;48.316;10.650;2024-02-16T12:20:37;5.90;;;4.77;;
9667;SDS011;4872;48.316;10.650;2024-02-16T12:23:13;6.17;;;5.23;;
9667;SDS011;4872;48.316;10.650;2024-02-16T12:25:41;6.80;;;4.60;;
9667;SDS011;4872;48.316;10.650;2024-02-16T12:28:08;6.13;;;4.13;;
9667;SDS011;4872;48.316;10.650;2024-02-16T12:30:35;7.00;;;4.30;;
9667;SDS011;4872;48.316;10.650;2024-02-16T12:33:02;4.83;;;3.67;;
9667;SDS011;4872;48.316;10.650;2024-02-16T12:35:29;4.93;;;4.40;;
9667;SDS011;4872;48.316;10.650;2024-02-16T12:37:56;5.80;;;4.03;;
9667;SDS011;4872;48.316;10.650;2024-02-16T12:40:23;4.70;;;3.73;;
9667;SDS011;4872;48.316;10.650;2024-02-16T12:42:51;5.27;;;4.07;;
9667;SDS011;4872;48.316;10.650;2024-02-16T12:45:18;6.37;;;3.27;;
9667;SDS011;4872;48.316;10.650;2024-02-16T12:47:45;4.50;;;3.00;;
9667;SDS011;4872;48.316;10.650;2024-02-16T12:50:12;3.83;;;3.30;;
9667;SDS011;4872;48.316;10.650;2024-02-16T12:52:39;5.00;;;3.30;;
9667;SDS011;4872;48.316;10.650;2024-02-16T12:55:06;6.00;;;3.63;;
9667;SDS011;4872;48.316;10.650;2024-02-16T12:57:35;5.17;;;3.13;;
9667;SDS011;4872;48.316;10.650;2024-02-16T13:00:04;9.23;;;3.20;;
9667;SDS011;4872;48.316;10.650;2024-02-16T13:02:32;7.27;;;3.70;;
9667;SDS011;4872;48.316;10.650;2024-02-16T13:05:00;3.53;;;2.83;;
9667;SDS011;4872;48.316;10.650;2024-02-16T13:07:26;3.77;;;2.60;;
9667;SDS011;4872;48.316;10.650;2024-02-16T13:09:53;2.70;;;2.50;;
9667;SDS011;4872;48.316;10.650;2024-02-16T13:12:20;3.60;;;2.57;;
9667;SDS011;4872;48.316;10.650;2024-02-16T13:14:48;2.80;;;2.30;;
9667;SDS011;4872;48.316;10.650;2024-02-16T13:17:16;3.20;;;2.03;;
9667;SDS011;4872;48.316;10.650;2024-02-16T13:19:43;3.33;;;2.50;;
9667;SDS011;4872;48.316;10.650;2024-02-16T13:22:10;5.47;;;2.40;;
9667;SDS011;4872;48.316;10.650;2024-02-16T13:24:37;4.10;;;2.67;;
9667;SDS011;4872;48.316;10.650;2024-02-16T13:27:04;5.50;;;3.20;;
9667;SDS011;4872;48.316;10.650;2024-02-16T13:29:31;3.50;;;2.30;;
9667;SDS011;4872;48.316;10.650;2024-02-16T13:31:58;4.73;;;2.80;;
9667;SDS011;4872;48.316;10.650;2024-02-16T13:34:27;3.80;;;2.77;;
9667;SDS011;4872;48.316;10.650;2024-02-16T13:37:10;3.57;;;2.60;;
9667;SDS011;4872;48.316;10.650;2024-02-16T13:39:38;5.43;;;2.90;;
9667;SDS011;4872;48.316;10.650;2024-02-16T13:42:05;3.63;;;2.70;;
9667;SDS011;4872;48.316;10.650;2024-02-16T13:44:32;4.90;;;2.70;;
9667;SDS011;4872;48.316;10.650;2024-02-16T13:46:58;3.40;;;2.87;;
9667;SDS011;4872;48.316;10.650;2024-02-16T13:49:27;3.83;;;2.43;;
9667;SDS011;4872;48.316;10.650;2024-02-16T13:51:53;4.27;;;3.03;;
9667;SDS011;4872;48.316;10.650;2024-02-16T13:54:23;5.10;;;2.80;;
9667;SDS011;4872;48.316;10.650;2024-02-16T13:56:50;4.13;;;2.80;;
9667;SDS011;4872;48.316;10.650;2024-02-16T13:59:17;3.33;;;2.70;;
9667;SDS011;4872;48.316;10.650;2024-02-16T14:01:44;3.93;;;2.70;;
9667;SDS011;4872;48.316;10.650;2024-02-16T14:04:12;4.13;;;2.63;;
9667;SDS011;4872;48.316;10.650;2024-02-16T14:06:41;5.03;;;2.90;;
9667;SDS011;4872;48.316;10.650;2024-02-16T14:09:08;3.30;;;3.00;;
9667;SDS011;4872;48.316;10.650;2024-02-16T14:11:38;4.93;;;2.60;;
9667;SDS011;4872;48.316;10.650;2024-02-16T14:14:06;3.47;;;3.10;;
9667;SDS011;4872;48.316;10.650;2024-02-16T14:16:33;4.03;;;2.97;;
9667;SDS011;4872;48.316;10.650;2024-02-16T14:19:00;3.60;;;2.97;;
9667;SDS011;4872;48.316;10.650;2024-02-16T14:21:27;4.57;;;3.20;;
9667;SDS011;4872;48.316;10.650;2024-02-16T14:23:55;5.57;;;3.30;;
9667;SDS011;4872;48.316;10.650;2024-02-16T14:26:22;4.77;;;3.37;;
9667;SDS011;4872;48.316;10.650;2024-02-16T14:28:49;3.80;;;2.90;;
9667;SDS011;4872;48.316;10.650;2024-02-16T14:31:15;4.53;;;3.27;;
9667;SDS011;4872;48.316;10.650;2024-02-16T14:33:48;3.67;;;3.30;;
9667;SDS011;4872;48.316;10.650;2024-02-16T14:36:18;4.00;;;3.60;;
9667;SDS011;4872;48.316;10.650;2024-02-16T14:38:47;6.20;;;3.83;;
9667;SDS011;4872;48.316;10.650;2024-02-16T14:41:17;5.03;;;4.00;;
9667;SDS011;4872;48.316;10.650;2024-02-16T14:43:45;6.20;;;3.77;;
9667;SDS011;4872;48.316;10.650;2024-02-16T14:46:15;6.03;;;5.23;;
9667;SDS011;4872;48.316;10.650;2024-02-16T14:48:45;6.73;;;4.33;;
9667;SDS011;4872;48.316;10.650;2024-02-16T14:51:13;5.40;;;4.90;;
9667;SDS011;4872;48.316;10.650;2024-02-16T14:53:40;9.13;;;6.57;;
9667;SDS011;4872;48.316;10.650;2024-02-16T14:56:06;5.90;;;5.30;;
9667;SDS011;4872;48.316;10.650;2024-02-16T14:58:35;6.97;;;5.20;;
9667;SDS011;4872;48.316;10.650;2024-02-16T15:01:02;8.23;;;5.33;;
9667;SDS011;4872;48.316;10.650;2024-02-16T15:03:29;12.67;;;8.40;;
9667;SDS011;4872;48.316;10.650;2024-02-16T15:05:56;14.87;;;9.77;;
9667;SDS011;4872;48.316;10.650;2024-02-16T15:08:22;7.47;;;5.07;;
9667;SDS011;4872;48.316;10.650;2024-02-16T15:10:50;11.67;;;7.80;;
9667;SDS011;4872;48.316;10.650;2024-02-16T15:13:17;5.23;;;4.73;;
9667;SDS011;4872;48.316;10.650;2024-02-16T15:15:46;6.50;;;5.80;;
9667;SDS011;4872;48.316;10.650;2024-02-16T15:18:13;7.80;;;4.73;;
9667;SDS011;4872;48.316;10.650;2024-02-16T15:20:40;9.57;;;6.30;;
9667;SDS011;4872;48.316;10.650;2024-02-16T15:23:06;10.50;;;6.23;;
9667;SDS011;4872;48.316;10.650;2024-02-16T15:25:33;11.43;;;6.67;;
9667;SDS011;4872;48.316;10.650;2024-02-16T15:28:00;5.87;;;5.27;;
9667;SDS011;4872;48.316;10.650;2024-02-16T15:30:27;4.57;;;4.10;;
9667;SDS011;4872;48.316;10.650;2024-02-16T15:32:55;5.47;;;4.57;;
9667;SDS011;4872;48.316;10.650;2024-02-16T15:35:21;6.80;;;5.17;;
9667;SDS011;4872;48.316;10.650;2024-02-16T15:37:49;10.77;;;7.17;;
9667;SDS011;4872;48.316;10.650;2024-02-16T15:40:16;6.87;;;5.30;;
9667;SDS011;4872;48.316;10.650;2024-02-16T15:42:42;6.70;;;4.50;;
9667;SDS011;4872;48.316;10.650;2024-02-16T15:45:25;5.43;;;4.67;;
9667;SDS011;4872;48.316;10.650;2024-02-16T15:47:51;5.43;;;4.23;;
9667;SDS011;4872;48.316;10.650;2024-02-16T15:50:19;7.23;;;4.10;;
9667;SDS011;4872;48.316;10.650;2024-02-16T15:52:46;5.60;;;3.97;;
9667;SDS011;4872;48.316;10.650;2024-02-16T15:55:13;4.67;;;4.23;;
9667;SDS011;4872;48.316;10.650;2024-02-16T15:57:40;5.13;;;4.20;;
9667;SDS011;4872;48.316;10.650;2024-02-16T16:00:07;7.47;;;4.23;;
9667;SDS011;4872;48.316;10.650;2024-02-16T16:02:34;8.27;;;4.37;;
9667;SDS011;4872;48.316;10.650;2024-02-16T16:05:01;5.03;;;4.33;;
9667;SDS011;4872;48.316;10.650;2024-02-16T16:07:29;6.43;;;4.33;;
9667;SDS011;4872;48.316;10.650;2024-02-16T16:09:56;4.50;;;3.67;;
9667;SDS011;4872;48.316;10.650;2024-02-16T16:12:23;4.17;;;3.77;;
9667;SDS011;4872;48.316;10.650;2024-02-16T16:14:52;5.80;;;4.40;;
9667;SDS011;4872;48.316;10.650;2024-02-16T16:17:20;6.80;;;4.17;;
9667;SDS011;4872;48.316;10.650;2024-02-16T16:19:47;5.10;;;4.03;;
9667;SDS011;4872;48.316;10.650;2024-02-16T16:22:14;6.80;;;4.33;;
9667;SDS011;4872;48.316;10.650;2024-02-16T16:24:42;8.00;;;6.20;;
9667;SDS011;4872;48.316;10.650;2024-02-16T16:27:09;11.43;;;9.57;;
9667;SDS011;4872;48.316;10.650;2024-02-16T16:29:37;6.07;;;4.50;;
9667;SDS011;4872;48.316;10.650;2024-02-16T16:32:04;7.67;;;5.23;;
9667;SDS011;4872;48.316;10.650;2024-02-16T16:34:31;5.57;;;4.57;;
9667;SDS011;4872;48.316;10.650;2024-02-16T16:36:58;6.93;;;4.90;;
9667;SDS011;4872;48.316;10.650;2024-02-16T16:39:25;10.00;;;6.57;;
9667;SDS011;4872;48.316;10.650;2024-02-16T16:41:54;6.97;;;5.30;;
9667;SDS011;4872;48.316;10.650;2024-02-16T16:44:21;9.50;;;6.70;;
9667;SDS011;4872;48.316;10.650;2024-02-16T16:46:50;6.37;;;4.80;;
9667;SDS011;4872;48.316;10.650;2024-02-16T16:49:17;5.30;;;4.40;;
9667;SDS011;4872;48.316;10.650;2024-02-16T16:55:10;7.30;;;4.83;;
9667;SDS011;4872;48.316;10.650;2024-02-16T16:57:38;8.03;;;6.37;;
9667;SDS011;4872;48.316;10.650;2024-02-16T17:00:05;8.60;;;5.90;;
9667;SDS011;4872;48.316;10.650;2024-02-16T17:02:33;7.43;;;6.17;;
9667;SDS011;4872;48.316;10.650;2024-02-16T17:05:00;11.13;;;8.47;;
9667;SDS011;4872;48.316;10.650;2024-02-16T17:07:27;14.13;;;9.60;;
9667;SDS011;4872;48.316;10.650;2024-02-16T17:09:57;14.63;;;9.70;;
9667;SDS011;4872;48.316;10.650;2024-02-16T17:12:24;20.03;;;12.37;;
9667;SDS011;4872;48.316;10.650;2024-02-16T17:14:52;12.67;;;8.40;;
9667;SDS011;4872;48.316;10.650;2024-02-16T17:17:19;9.03;;;7.40;;
9667;SDS011;4872;48.316;10.650;2024-02-16T17:19:47;8.40;;;6.50;;
9667;SDS011;4872;48.316;10.650;2024-02-16T17:22:14;10.27;;;8.10;;
9667;SDS011;4872;48.316;10.650;2024-02-16T17:24:42;20.37;;;15.50;;
9667;SDS011;4872;48.316;10.650;2024-02-16T17:27:09;17.63;;;11.70;;
9667;SDS011;4872;48.316;10.650;2024-02-16T17:29:36;13.43;;;11.03;;
9667;SDS011;4872;48.316;10.650;2024-02-16T17:32:05;13.90;;;10.57;;
9667;SDS011;4872;48.316;10.650;2024-02-16T17:34:32;9.77;;;8.67;;
9667;SDS011;4872;48.316;10.650;2024-02-16T17:36:59;12.83;;;11.50;;
9667;SDS011;4872;48.316;10.650;2024-02-16T17:39:25;17.67;;;12.83;;
9667;SDS011;4872;48.316;10.650;2024-02-16T17:41:52;19.80;;;16.77;;
9667;SDS011;4872;48.316;10.650;2024-02-16T17:44:19;14.43;;;12.90;;
9667;SDS011;4872;48.316;10.650;2024-02-16T17:46:46;23.17;;;16.53;;
9667;SDS011;4872;48.316;10.650;2024-02-16T17:49:14;20.67;;;17.07;;
9667;SDS011;4872;48.316;10.650;2024-02-16T17:51:41;19.07;;;14.53;;
9667;SDS011;4872;48.316;10.650;2024-02-16T17:54:08;20.17;;;15.33;;
9667;SDS011;4872;48.316;10.650;2024-02-16T17:56:35;25.30;;;16.60;;
9667;SDS011;4872;48.316;10.650;2024-02-16T17:59:01;21.07;;;15.97;;
9667;SDS011;4872;48.316;10.650;2024-02-16T18:01:28;16.10;;;13.80;;
9667;SDS011;4872;48.316;10.650;2024-02-16T18:03:55;20.10;;;14.27;;
9667;SDS011;4872;48.316;10.650;2024-02-16T18:06:23;24.73;;;17.90;;
9667;SDS011;4872;48.316;10.650;2024-02-16T18:08:50;52.60;;;28.23;;
9667;SDS011;4872;48.316;10.650;2024-02-16T18:11:17;27.60;;;17.60;;
9667;SDS011;4872;48.316;10.650;2024-02-16T18:13:44;24.67;;;17.60;;
9667;SDS011;4872;48.316;10.650;2024-02-16T18:16:11;28.43;;;17.33;;
9667;SDS011;4872;48.316;10.650;2024-02-16T18:18:42;27.50;;;18.40;;
9667;SDS011;4872;48.316;10.650;2024-02-16T18:21:09;30.77;;;19.93;;
9667;SDS011;4872;48.316;10.650;2024-02-16T18:23:37;21.43;;;16.30;;
9667;SDS011;4872;48.316;10.650;2024-02-16T18:26:07;40.50;;;24.27;;
9667;SDS011;4872;48.316;10.650;2024-02-16T18:28:34;82.33;;;36.53;;
9667;SDS011;4872;48.316;10.650;2024-02-16T18:31:01;43.77;;;21.77;;
9667;SDS011;4872;48.316;10.650;2024-02-16T18:33:28;16.87;;;9.80;;
9667;SDS011;4872;48.316;10.650;2024-02-16T18:35:55;11.27;;;8.40;;
9667;SDS011;4872;48.316;10.650;2024-02-16T18:38:21;15.83;;;9.47;;
9667;SDS011;4872;48.316;10.650;2024-02-16T18:40:50;13.93;;;9.67;;
9667;SDS011;4872;48.316;10.650;2024-02-16T18:43:17;20.07;;;12.77;;
9667;SDS011;4872;48.316;10.650;2024-02-16T18:45:43;19.57;;;13.73;;
9667;SDS011;4872;48.316;10.650;2024-02-16T18:48:10;26.53;;;18.63;;
9667;SDS011;4872;48.316;10.650;2024-02-16T18:50:37;12.13;;;8.23;;
9667;SDS011;4872;48.316;10.650;2024-02-16T18:53:04;11.03;;;6.80;;
9667;SDS011;4872;48.316;10.650;2024-02-16T18:55:30;9.50;;;7.23;;
9667;SDS011;4872;48.316;10.650;2024-02-16T18:57:59;10.33;;;9.27;;
9667;SDS011;4872;48.316;10.650;2024-02-16T19:00:25;13.27;;;10.33;;
9667;SDS011;4872;48.316;10.650;2024-02-16T19:02:52;11.40;;;8.40;;
9667;SDS011;4872;48.316;10.650;2024-02-16T19:05:19;10.77;;;7.27;;
9667;SDS011;4872;48.316;10.650;2024-02-16T19:07:46;9.73;;;7.40;;
9667;SDS011;4872;48.316;10.650;2024-02-16T19:10:16;29.13;;;17.13;;
9667;SDS011;4872;48.316;10.650;2024-02-16T19:13:22;28.37;;;17.37;;
9667;SDS011;4872;48.316;10.650;2024-02-16T19:15:49;15.60;;;10.57;;
9667;SDS011;4872;48.316;10.650;2024-02-16T19:18:16;16.73;;;10.10;;
9667;SDS011;4872;48.316;10.650;2024-02-16T19:20:43;29.40;;;17.47;;
9667;SDS011;4872;48.316;10.650;2024-02-16T19:23:10;17.73;;;12.23;;
9667;SDS011;4872;48.316;10.650;2024-02-16T19:25:39;16.63;;;12.83;;
9667;SDS011;4872;48.316;10.650;2024-02-16T19:28:06;16.10;;;11.57;;
9667;SDS011;4872;48.316;10.650;2024-02-16T19:30:52;10.87;;;9.77;;
9667;SDS011;4872;48.316;10.650;2024-02-16T19:33:19;14.63;;;10.70;;
9667;SDS011;4872;48.316;10.650;2024-02-16T19:35:46;11.33;;;9.07;;
9667;SDS011;4872;48.316;10.650;2024-02-16T19:38:13;13.83;;;9.97;;
9667;SDS011;4872;48.316;10.650;2024-02-16T19:40:40;15.40;;;10.33;;
9667;SDS011;4872;48.316;10.650;2024-02-16T19:43:07;14.40;;;9.97;;
9667;SDS011;4872;48.316;10.650;2024-02-16T19:45:34;11.67;;;9.30;;
9667;SDS011;4872;48.316;10.650;2024-02-16T19:48:02;12.53;;;9.00;;
9667;SDS011;4872;48.316;10.650;2024-02-16T19:50:29;16.87;;;12.20;;
9667;SDS011;4872;48.316;10.650;2024-02-16T19:52:56;611.70;;;302.90;;
9667;SDS011;4872;48.316;10.650;2024-02-16T19:55:23;500.07;;;240.70;;
9667;SDS011;4872;48.316;10.650;2024-02-16T19:57:49;271.53;;;116.20;;
9667;SDS011;4872;48.316;10.650;2024-02-16T20:00:17;140.73;;;58.20;;
9667;SDS011;4872;48.316;10.650;2024-02-16T20:02:45;40.60;;;22.00;;
9667;SDS011;4872;48.316;10.650;2024-02-16T20:05:13;71.63;;;37.20;;
9667;SDS011;4872;48.316;10.650;2024-02-16T20:07:43;51.43;;;26.40;;
9667;SDS011;4872;48.316;10.650;2024-02-16T20:10:10;13.57;;;11.13;;
9667;SDS011;4872;48.316;10.650;2024-02-16T20:12:37;11.30;;;9.97;;
9667;SDS011;4872;48.316;10.650;2024-02-16T20:15:04;15.40;;;11.53;;